Time;durP1;ratioP1;P1;durP2;ratioP2;P2;SDS_P1;SDS_P2;PMS_P1;PMS_P2;Temp;Humidity;BMP_temperature;BMP_pressure;BME280_temperature;BME280_humidity;BME280_pressure;Samples;Min_cycle;Max_cycle;Signal;HPM_P1;HPM_P2
2022/01/02 00:01:44;;;;;;;16.77;11.75;;;3.40;87.20;;;;;;10942353;32;20096;-70
2022/01/02 00:08:11;;;;;;;19.67;14.80;;;3.30;87.20;;;;;;10942227;32;20019;-71
2022/01/02 00:14:20;;;;;;;18.00;13.32;;;3.40;87.30;;;;;;10942085;32;20023;-71
2022/01/02 00:20:36;;;;;;;22.67;18.17;;;3.40;87.20;;;;;;10943554;32;20374;-71
2022/01/02 00:26:42;;;;;;;18.90;12.52;;;3.40;87.20;;;;;;10928220;32;20042;-71
2022/01/02 00:32:44;;;;;;;18.83;13.18;;;3.40;87.20;;;;;;10937984;32;20015;-71
2022/01/02 00:38:46;;;;;;;14.30;10.57;;;3.40;87.20;;;;;;10941404;32;20433;-71
2022/01/02 00:45:05;;;;;;;15.15;11.25;;;3.40;87.10;;;;;;10941383;32;20035;-71
2022/01/02 00:51:49;;;;;;;14.73;11.77;;;3.20;87.10;;;;;;10940812;32;20019;-71
2022/01/02 00:57:58;;;;;;;21.42;14.95;;;3.20;87.20;;;;;;10941559;32;20035;-71
2022/01/02 01:04:02;;;;;;;16.58;11.75;;;3.20;87.20;;;;;;10941638;32;20028;-71
2022/01/02 01:10:08;;;;;;;14.93;10.05;;;3.20;87.20;;;;;;10924466;32;20023;-71
2022/01/02 01:16:11;;;;;;;40.78;22.87;;;3.20;87.10;;;;;;10939712;32;20034;-71
2022/01/02 01:22:13;;;;;;;31.48;24.10;;;3.20;87.20;;;;;;10942374;32;20061;-71
2022/01/02 01:28:40;;;;;;;20.73;15.70;;;3.20;87.20;;;;;;10948546;32;20031;-71
2022/01/02 01:34:42;;;;;;;21.48;16.05;;;3.20;87.20;;;;;;10948344;32;20055;-71
2022/01/02 01:40:57;;;;;;;15.38;10.98;;;3.20;87.20;;;;;;10947674;32;20035;-71
2022/01/02 01:47:00;;;;;;;22.13;16.23;;;3.20;87.30;;;;;;10273451;32;21904603;-71
2022/01/02 01:53:03;;;;;;;17.08;12.80;;;3.20;87.30;;;;;;10944031;32;20089;-71
2022/01/02 01:59:06;;;;;;;15.90;10.93;;;3.20;87.30;;;;;;10943926;32;20045;-70
2022/01/02 02:05:09;;;;;;;18.55;13.98;;;3.30;87.20;;;;;;10942978;32;20064;-71
2022/01/02 02:11:12;;;;;;;19.98;16.70;;;3.30;87.20;;;;;;10946417;32;20051;-70
2022/01/02 02:17:15;;;;;;;17.85;12.43;;;3.40;87.20;;;;;;10933317;32;20045;-70
2022/01/02 02:23:17;;;;;;;21.00;17.83;;;3.50;87.20;;;;;;10946491;32;20030;-71
2022/01/02 02:29:19;;;;;;;32.00;21.37;;;3.40;86.80;;;;;;10946387;32;20019;-71
2022/01/02 02:35:23;;;;;;;24.23;18.80;;;3.30;87.00;;;;;;10930314;32;20450;-70
2022/01/02 02:41:31;;;;;;;25.60;19.83;;;3.20;87.20;;;;;;10945925;32;20050;-70
2022/01/02 02:53:54;;;;;;;15.10;11.10;;;3.20;87.20;;;;;;10945443;32;20379;-70
2022/01/02 02:59:56;;;;;;;16.65;12.90;;;3.20;87.20;;;;;;10931959;32;20019;-71
2022/01/02 03:05:58;;;;;;;18.25;13.60;;;3.20;87.20;;;;;;10945000;32;20023;-71
2022/01/02 03:12:00;;;;;;;16.70;12.05;;;3.10;87.10;;;;;;10944934;32;20023;-71
2022/01/02 03:18:04;;;;;;;22.33;13.85;;;2.90;87.10;;;;;;10944674;32;20027;-71
2022/01/02 03:24:06;;;;;;;16.85;11.52;;;2.90;87.20;;;;;;10940625;32;20016;-71
2022/01/02 03:30:09;;;;;;;11.77;8.27;;;3.00;87.20;;;;;;10944076;32;20054;-71
2022/01/02 03:36:11;;;;;;;13.57;9.65;;;3.00;87.20;;;;;;10928880;32;20049;-71
2022/01/02 03:42:13;;;;;;;27.75;18.92;;;3.00;87.20;;;;;;10943645;32;20035;-71
2022/01/02 03:48:15;;;;;;;24.98;20.60;;;3.10;87.20;;;;;;10943170;32;20406;-70
2022/01/02 03:54:17;;;;;;;28.90;20.52;;;3.20;87.10;;;;;;10942558;32;20027;-71
2022/01/02 04:00:37;;;;;;;14.02;10.10;;;3.20;87.20;;;;;;10942941;32;20060;-71
2022/01/02 04:06:40;;;;;;;15.68;11.48;;;3.20;87.20;;;;;;10942824;32;20026;-71
2022/01/02 04:12:45;;;;;;;12.77;9.57;;;3.10;87.20;;;;;;10938502;32;20070;-71
2022/01/02 04:18:48;;;;;;;15.82;10.18;;;3.10;87.20;;;;;;10942492;32;20399;-71
2022/01/02 04:24:50;;;;;;;13.95;9.57;;;3.10;87.20;;;;;;10942252;32;20037;-70
2022/01/02 04:30:52;;;;;;;16.65;12.50;;;3.00;87.10;;;;;;10942217;32;20050;-71
2022/01/02 04:36:54;;;;;;;17.87;13.00;;;2.90;87.20;;;;;;10942052;32;20015;-71
2022/01/02 04:42:57;;;;;;;15.38;8.63;;;2.90;87.10;;;;;;10941834;32;20046;-71
2022/01/02 04:48:59;;;;;;;15.50;12.13;;;2.80;87.10;;;;;;10941805;32;20041;-70
2022/01/02 04:55:01;;;;;;;17.42;14.25;;;2.60;87.00;;;;;;10941648;32;20053;-70
2022/01/02 05:01:07;;;;;;;87.75;28.62;;;2.60;87.00;;;;;;10949107;32;20054;-71
2022/01/02 05:07:11;;;;;;;20.95;15.88;;;2.50;86.80;;;;;;10949134;32;20319;-70
2022/01/02 05:13:14;;;;;;;18.45;14.55;;;2.40;86.90;;;;;;10949184;32;20023;-70
2022/01/02 05:19:16;;;;;;;16.45;11.02;;;2.30;87.00;;;;;;10948791;32;20053;-71
2022/01/02 05:25:18;;;;;;;21.55;18.05;;;2.50;87.20;;;;;;10935227;32;20046;-70
2022/01/02 05:31:21;;;;;;;68.75;22.70;;;2.60;87.10;;;;;;10935070;32;20049;-71
2022/01/02 05:37:23;;;;;;;14.13;11.18;;;2.70;87.20;;;;;;10945554;32;20052;-70
2022/01/02 05:43:26;;;;;;;17.80;12.65;;;2.60;87.40;;;;;;10947721;32;20031;-70
2022/01/02 05:49:28;;;;;;;22.42;11.68;;;2.70;87.40;;;;;;10947791;32;20049;-71
2022/01/02 05:55:30;;;;;;;17.85;11.38;;;2.70;87.20;;;;;;10947549;32;20387;-70
2022/01/02 06:01:33;;;;;;;19.45;14.20;;;2.80;87.50;;;;;;10947369;32;20062;-71
2022/01/02 06:07:35;;;;;;;22.33;14.90;;;2.80;87.40;;;;;;10946627;32;20061;-70
2022/01/02 06:13:40;;;;;;;19.55;15.25;;;2.70;87.40;;;;;;10947039;32;20392;-71
2022/01/02 06:19:43;;;;;;;15.77;12.07;;;2.70;87.20;;;;;;10942472;32;20096;-71
2022/01/02 06:25:46;;;;;;;31.30;19.00;;;2.60;87.30;;;;;;10946555;32;20014;-70
2022/01/02 06:31:48;;;;;;;19.17;13.40;;;2.50;87.20;;;;;;10932907;32;20027;-70
2022/01/02 06:38:23;;;;;;;14.23;10.98;;;2.50;87.30;;;;;;10946335;32;20015;-70
2022/01/02 06:44:26;;;;;;;12.27;9.60;;;2.50;87.30;;;;;;10793412;32;20067;-70
2022/01/02 06:50:31;;;;;;;15.43;11.30;;;2.50;87.20;;;;;;10792873;32;20059;-70
2022/01/02 06:56:33;;;;;;;17.17;12.25;;;2.60;87.20;;;;;;10792350;32;20055;-70
2022/01/02 07:02:35;;;;;;;12.10;10.15;;;2.40;87.00;;;;;;10792087;32;20020;-70
2022/01/02 07:08:38;;;;;;;14.43;11.15;;;2.50;87.30;;;;;;10791709;33;20055;-70
2022/01/02 07:14:40;;;;;;;18.10;14.80;;;2.50;87.30;;;;;;10791659;33;20016;-70
2022/01/02 07:20:42;;;;;;;19.10;14.90;;;2.50;87.20;;;;;;10932139;32;20293;-70
2022/01/02 07:26:47;;;;;;;22.00;17.10;;;2.60;87.40;;;;;;10930768;32;20041;-70
2022/01/02 07:39:57;;;;;;;13.98;10.45;;;2.60;87.20;;;;;;10943803;32;20053;-71
2022/01/02 07:45:59;;;;;;;16.05;11.23;;;2.70;87.10;;;;;;10929473;32;20035;-71
2022/01/02 07:52:01;;;;;;;25.33;17.25;;;2.60;87.10;;;;;;10930000;32;20053;-71
2022/01/02 07:58:03;;;;;;;17.35;12.07;;;2.60;87.20;;;;;;10943335;32;20420;-71
2022/01/02 08:04:05;;;;;;;19.85;16.25;;;2.60;87.00;;;;;;10943013;32;20049;-71
2022/01/02 08:10:07;;;;;;;63.42;25.80;;;2.50;87.20;;;;;;10941448;32;20041;-71
2022/01/02 08:16:12;;;;;;;32.70;17.60;;;2.50;87.40;;;;;;10938719;32;20093;-71
2022/01/02 08:22:14;;;;;;;23.45;19.65;;;2.60;87.50;;;;;;10940502;32;20049;-71
2022/01/02 08:28:17;;;;;;;18.33;12.80;;;2.70;87.50;;;;;;10940310;32;20023;-71
2022/01/02 08:34:18;;;;;;;25.98;18.02;;;2.70;87.30;;;;;;10942194;32;20014;-71
2022/01/02 08:40:20;;;;;;;26.33;21.77;;;2.60;87.20;;;;;;10928456;32;20058;-70
2022/01/02 08:46:22;;;;;;;21.25;15.38;;;2.60;87.50;;;;;;10941809;32;20019;-71
2022/01/02 08:52:25;;;;;;;20.33;15.80;;;2.70;87.40;;;;;;10941894;32;20011;-71
2022/01/02 08:58:27;;;;;;;20.85;16.05;;;2.70;87.40;;;;;;10941689;32;20026;-71
2022/01/02 09:04:29;;;;;;;17.00;12.00;;;2.70;87.30;;;;;;10939188;32;20030;-71
2022/01/02 09:10:31;;;;;;;16.12;11.45;;;2.70;87.30;;;;;;10941456;32;20352;-71
2022/01/02 09:16:34;;;;;;;18.33;10.63;;;2.70;87.20;;;;;;10927882;32;20062;-71
2022/01/02 09:22:39;;;;;;;21.67;18.10;;;2.70;87.30;;;;;;10940883;32;20027;-71
2022/01/02 09:28:44;;;;;;;25.15;20.33;;;2.80;87.20;;;;;;10928112;32;20064;-72
2022/01/02 09:34:46;;;;;;;21.23;13.90;;;2.80;87.40;;;;;;10939263;32;20332;-71
2022/01/02 09:40:49;;;;;;;21.58;16.85;;;2.80;87.60;;;;;;10927498;32;20410;-71
2022/01/02 09:46:53;;;;;;;62.13;23.38;;;2.80;87.60;;;;;;10943592;27;20065;-71
2022/01/02 09:52:56;;;;;;;38.58;22.90;;;2.90;87.70;;;;;;10959220;32;20328;-71
2022/01/02 09:58:59;;;;;;;33.47;24.67;;;3.00;87.70;;;;;;10947402;32;20019;-70
2022/01/02 10:05:02;;;;;;;28.73;21.37;;;3.00;87.60;;;;;;10947173;32;20018;-71
2022/01/02 10:11:10;;;;;;;29.98;21.58;;;2.90;87.30;;;;;;10947114;32;20037;-71
2022/01/02 10:17:12;;;;;;;37.08;22.42;;;2.90;87.50;;;;;;10941801;32;20027;-71
2022/01/02 10:23:22;;;;;;;30.33;19.55;;;3.00;87.60;;;;;;10903758;32;20031;-71
2022/01/02 10:29:24;;;;;;;28.75;18.35;;;3.10;87.40;;;;;;10908614;32;20055;-71
2022/01/02 10:35:26;;;;;;;25.00;18.77;;;3.00;87.30;;;;;;10908507;32;20023;-70
2022/01/02 10:41:33;;;;;;;45.90;19.17;;;2.90;87.40;;;;;;10908037;32;20019;-71
2022/01/02 10:47:35;;;;;;;22.40;18.27;;;2.90;87.50;;;;;;10906677;32;20015;-70
2022/01/02 10:53:55;;;;;;;32.17;23.98;;;2.90;87.40;;;;;;10902574;32;20037;-71
2022/01/02 10:59:58;;;;;;;24.05;18.27;;;2.90;87.40;;;;;;10907585;32;20027;-71
2022/01/02 11:06:13;;;;;;;39.10;23.80;;;2.90;87.40;;;;;;10904305;32;20045;-70
2022/01/02 11:12:16;;;;;;;20.80;15.50;;;2.90;87.30;;;;;;10907215;32;20019;-70
2022/01/02 11:18:19;;;;;;;34.70;24.70;;;2.90;87.40;;;;;;10906976;32;20050;-70
2022/01/02 11:24:50;;;;;;;28.70;20.15;;;3.00;87.50;;;;;;10907790;32;20060;-70
2022/01/02 11:30:53;;;;;;;36.58;26.40;;;3.10;87.50;;;;;;10944031;32;20018;-71
2022/01/02 11:37:19;;;;;;;25.15;16.10;;;3.20;87.60;;;;;;10943925;32;20050;-70
2022/01/02 11:43:36;;;;;;;19.67;15.75;;;3.20;87.40;;;;;;10943372;32;20054;-70
2022/01/02 11:49:40;;;;;;;29.05;21.70;;;3.20;87.40;;;;;;10943302;32;20027;-70
2022/01/02 11:55:44;;;;;;;26.62;19.55;;;3.20;87.50;;;;;;10943488;32;20011;-70
2022/01/02 12:01:49;;;;;;;32.47;24.00;;;3.30;87.40;;;;;;10942971;32;20019;-70
2022/01/02 12:07:54;;;;;;;23.70;17.15;;;3.20;87.30;;;;;;10942594;32;20384;-70
2022/01/02 12:15:06;;;;;;;28.77;19.73;;;3.20;87.40;;;;;;10864895;32;20434;-70
2022/01/02 12:21:09;;;;;;;37.50;24.90;;;3.20;87.60;;;;;;10859218;32;20067;-70
2022/01/02 12:27:27;;;;;;;38.88;23.85;;;3.30;87.50;;;;;;10861646;32;20031;-70
2022/01/02 12:33:51;;;;;;;33.08;22.37;;;3.30;87.40;;;;;;10848917;32;20016;-70
2022/01/02 12:39:55;;;;;;;33.75;17.17;;;3.30;87.40;;;;;;10942030;32;20319;-70
2022/01/02 12:45:57;;;;;;;51.75;33.42;;;3.30;87.50;;;;;;10940066;32;20041;-70
2022/01/02 12:52:04;;;;;;;46.80;33.00;;;3.30;87.50;;;;;;10941692;32;20027;-70
2022/01/02 12:58:07;;;;;;;20.83;14.77;;;3.30;87.40;;;;;;10941695;32;20045;-70
2022/01/02 13:04:09;;;;;;;25.77;17.62;;;3.30;87.50;;;;;;10937290;32;20045;-70
2022/01/02 13:10:15;;;;;;;41.37;28.83;;;3.40;87.50;;;;;;10939308;32;20354;-70
2022/01/02 13:16:18;;;;;;;25.92;16.98;;;3.40;87.40;;;;;;10941495;32;20008;-70
2022/01/02 13:22:23;;;;;;;29.15;18.77;;;3.30;87.30;;;;;;10947594;32;20027;-70
2022/01/02 13:28:27;;;;;;;28.23;19.20;;;3.30;87.30;;;;;;10948514;32;20023;-70
2022/01/02 13:34:30;;;;;;;51.83;28.92;;;3.30;87.30;;;;;;10948454;32;20014;-71
2022/01/02 13:40:34;;;;;;;43.40;30.50;;;3.30;87.30;;;;;;10945672;32;20348;-71
2022/01/02 13:46:55;;;;;;;39.20;26.80;;;3.30;87.40;;;;;;10947627;32;20019;-71
2022/01/02 13:53:00;;;;;;;56.30;35.05;;;3.30;87.50;;;;;;10946503;32;20045;-71
2022/01/02 13:59:02;;;;;;;50.20;31.48;;;3.40;87.60;;;;;;10944595;32;20019;-71
2022/01/02 14:05:05;;;;;;;45.95;32.28;;;3.50;87.50;;;;;;10947191;32;20027;-71
2022/01/02 14:11:25;;;;;;;35.25;25.60;;;3.50;87.60;;;;;;10942791;32;20023;-71
2022/01/02 14:17:31;;;;;;;32.72;22.48;;;3.40;87.60;;;;;;10946600;32;20061;-71
2022/01/02 14:23:33;;;;;;;30.83;20.40;;;3.50;87.70;;;;;;10946502;32;20041;-71
2022/01/02 14:29:48;;;;;;;32.40;21.87;;;3.50;87.60;;;;;;10946240;32;20019;-71
2022/01/02 14:35:50;;;;;;;51.58;32.40;;;3.50;87.60;;;;;;10946235;32;20033;-71
2022/01/02 14:41:52;;;;;;;34.55;23.05;;;3.60;87.60;;;;;;10944416;32;20335;-70
2022/01/02 14:47:55;;;;;;;36.13;25.33;;;3.60;87.60;;;;;;10941701;32;20022;-71
2022/01/02 14:53:57;;;;;;;37.13;23.20;;;3.60;87.70;;;;;;10944760;32;20054;-71
2022/01/02 14:59:59;;;;;;;48.55;33.42;;;3.60;87.60;;;;;;10940862;32;20053;-70
2022/01/02 15:06:17;;;;;;;68.95;44.75;;;3.70;87.60;;;;;;10903433;32;20045;-70
2022/01/02 15:12:19;;;;;;;59.15;39.22;;;3.70;87.70;;;;;;10903242;32;20066;-70
2022/01/02 15:18:21;;;;;;;37.63;22.98;;;3.70;87.70;;;;;;10905543;32;20024;-70
2022/01/02 15:24:24;;;;;;;45.50;27.25;;;3.70;87.70;;;;;;10906837;32;20055;-71
2022/01/02 15:30:27;;;;;;;32.13;20.30;;;3.70;87.70;;;;;;10906513;32;20023;-70
2022/01/02 15:36:29;;;;;;;28.17;20.67;;;3.70;87.70;;;;;;10906346;32;20010;-72
2022/01/02 15:42:31;;;;;;;27.40;17.67;;;3.70;87.80;;;;;;10905349;32;20352;-72
2022/01/02 15:48:34;;;;;;;30.30;20.12;;;3.70;87.80;;;;;;10905960;32;20046;-72
2022/01/02 15:54:38;;;;;;;16.60;12.60;;;3.70;87.70;;;;;;10903622;32;20380;-71
2022/01/02 16:00:40;;;;;;;47.45;29.23;;;3.70;87.70;;;;;;10905636;32;20053;-69
2022/01/02 16:06:52;;;;;;;28.80;18.45;;;3.60;87.70;;;;;;10905395;32;20050;-69
2022/01/02 16:12:54;;;;;;;48.00;31.98;;;3.60;87.70;;;;;;10905060;32;20398;-72
2022/01/02 16:19:07;;;;;;;34.30;22.45;;;3.60;87.70;;;;;;10903853;32;20057;-72
2022/01/02 16:25:09;;;;;;;23.08;14.77;;;3.60;87.80;;;;;;10904565;32;20042;-72
2022/01/02 16:31:11;;;;;;;30.88;18.42;;;3.70;87.80;;;;;;10904645;32;20058;-72
2022/01/02 16:37:13;;;;;;;44.53;26.27;;;3.60;87.70;;;;;;10899198;32;20069;-72
2022/01/02 16:43:17;;;;;;;47.15;26.30;;;3.70;87.70;;;;;;10902412;32;20027;-72
2022/01/02 16:49:21;;;;;;;35.30;19.58;;;3.70;87.70;;;;;;10904213;32;20293;-72
2022/01/02 16:55:23;;;;;;;60.88;32.13;;;3.60;87.70;;;;;;10909964;32;20361;-71
2022/01/02 17:01:25;;;;;;;47.00;28.60;;;3.60;87.60;;;;;;10911861;32;20438;-72
2022/01/02 17:07:28;;;;;;;46.28;28.25;;;3.60;87.70;;;;;;10910196;32;20027;-72
2022/01/02 17:13:30;;;;;;;49.30;26.85;;;3.60;87.60;;;;;;10911409;32;20053;-72
2022/01/02 17:19:32;;;;;;;34.88;24.37;;;3.50;87.70;;;;;;10911238;32;20054;-71
2022/01/02 17:25:57;;;;;;;50.80;33.30;;;3.50;87.60;;;;;;10911213;32;20090;-72
2022/01/02 17:32:06;;;;;;;42.60;28.95;;;3.50;87.70;;;;;;10910857;32;20046;-72
2022/01/02 17:38:09;;;;;;;36.40;23.55;;;3.50;87.80;;;;;;10910507;32;20323;-72
2022/01/02 17:44:14;;;;;;;44.97;26.92;;;3.50;87.80;;;;;;10948927;27;20064;-71
2022/01/02 17:50:18;;;;;;;29.48;19.83;;;3.60;87.80;;;;;;10985682;32;20042;-72
2022/01/02 17:56:21;;;;;;;66.37;43.30;;;3.70;87.80;;;;;;10972060;32;20045;-72
2022/01/02 18:02:23;;;;;;;41.92;28.62;;;3.70;87.70;;;;;;10984770;32;20030;-72
2022/01/02 18:08:27;;;;;;;31.92;20.08;;;3.70;87.80;;;;;;10984324;32;20397;-72
2022/01/02 18:14:49;;;;;;;38.25;24.60;;;3.70;87.70;;;;;;10971471;32;20391;-72
2022/01/02 18:20:51;;;;;;;48.97;29.98;;;3.80;87.70;;;;;;10983460;32;20407;-71
2022/01/02 18:26:56;;;;;;;34.45;20.60;;;3.70;87.70;;;;;;10984265;32;20022;-71
2022/01/02 18:32:58;;;;;;;42.97;27.83;;;3.80;87.70;;;;;;10984122;32;20018;-72
2022/01/02 18:39:02;;;;;;;25.77;17.20;;;3.80;87.70;;;;;;10983952;32;20010;-74
2022/01/02 18:45:04;;;;;;;33.35;21.48;;;3.80;87.70;;;;;;10983689;32;20045;-73
2022/01/02 18:51:06;;;;;;;28.40;19.05;;;3.80;87.70;;;;;;10983438;32;20045;-74
2022/01/02 18:57:09;;;;;;;64.75;36.88;;;3.80;87.70;;;;;;10983238;32;20049;-72
2022/01/02 19:03:11;;;;;;;63.67;39.53;;;3.80;87.70;;;;;;10982820;32;20030;-73
2022/01/02 19:09:15;;;;;;;62.80;35.58;;;3.80;87.70;;;;;;10982769;32;20011;-74
2022/01/02 19:15:18;;;;;;;55.28;32.53;;;3.80;87.80;;;;;;10969195;32;20044;-73
2022/01/02 19:21:20;;;;;;;43.22;26.60;;;3.80;87.80;;;;;;10982410;32;20011;-73
2022/01/02 19:27:22;;;;;;;48.65;27.40;;;3.80;87.80;;;;;;10982163;32;20015;-73
2022/01/02 19:33:25;;;;;;;29.77;17.98;;;3.80;87.80;;;;;;10981188;32;20062;-73
2022/01/02 19:39:27;;;;;;;45.33;20.92;;;3.90;87.80;;;;;;10981668;32;20045;-70
2022/01/02 19:45:30;;;;;;;39.13;26.25;;;3.90;87.80;;;;;;10981366;32;20022;-72
2022/01/02 19:51:32;;;;;;;30.10;17.37;;;3.90;87.80;;;;;;10981326;32;20045;-72
2022/01/02 19:57:35;;;;;;;60.72;30.20;;;3.90;87.80;;;;;;10964668;32;20045;-72
2022/01/02 20:03:37;;;;;;;39.67;23.87;;;3.90;87.70;;;;;;10936307;32;20048;-72
2022/01/02 20:09:39;;;;;;;58.65;31.10;;;3.90;87.80;;;;;;10929653;32;20053;-71
2022/01/02 20:15:44;;;;;;;53.17;31.65;;;3.90;87.80;;;;;;10938643;32;20050;-72
2022/01/02 20:21:46;;;;;;;43.13;26.40;;;3.90;87.80;;;;;;10939052;32;20045;-72
2022/01/02 20:27:48;;;;;;;43.40;24.70;;;3.90;87.80;;;;;;10942235;32;20026;-73
2022/01/02 20:33:51;;;;;;;73.18;40.28;;;3.90;87.90;;;;;;10941863;32;20296;-73
2022/01/02 20:39:56;;;;;;;40.25;26.58;;;3.90;87.90;;;;;;10942315;32;20042;-73
2022/01/02 20:45:58;;;;;;;34.72;19.87;;;3.80;87.90;;;;;;10942097;32;20015;-72
2022/01/02 20:52:02;;;;;;;39.72;23.05;;;3.80;87.90;;;;;;10942106;32;20403;-73
2022/01/02 20:58:05;;;;;;;48.30;26.77;;;3.90;88.00;;;;;;10941435;32;20403;-73
2022/01/02 21:04:09;;;;;;;45.50;26.17;;;3.90;88.00;;;;;;10924619;32;20031;-73
2022/01/02 21:10:12;;;;;;;37.33;20.10;;;3.90;88.00;;;;;;10928166;32;20019;-73
2022/01/02 21:16:15;;;;;;;61.42;31.17;;;3.90;88.00;;;;;;10941688;32;20050;-73
2022/01/02 21:22:17;;;;;;;28.98;18.10;;;4.00;87.90;;;;;;10941222;32;20026;-73
2022/01/02 21:28:20;;;;;;;50.97;30.15;;;3.90;87.90;;;;;;10940428;32;20086;-71
2022/01/02 21:34:22;;;;;;;26.90;18.83;;;4.00;88.00;;;;;;10940902;32;20042;-70
2022/01/02 21:40:27;;;;;;;38.45;25.02;;;4.00;87.90;;;;;;10939616;32;20034;-71
2022/01/02 21:46:29;;;;;;;47.55;24.27;;;4.00;87.90;;;;;;10934626;32;20045;-71
2022/01/02 21:52:32;;;;;;;31.60;19.12;;;4.00;88.00;;;;;;10947956;32;20020;-71
2022/01/02 21:58:34;;;;;;;58.55;32.40;;;4.10;88.00;;;;;;10947692;32;20015;-71
2022/01/02 22:04:36;;;;;;;48.22;24.65;;;4.10;87.90;;;;;;10947436;32;20204;-71
2022/01/02 22:10:40;;;;;;;37.20;20.88;;;4.10;87.90;;;;;;10947392;32;20292;-71
2022/01/02 22:16:42;;;;;;;36.47;22.42;;;4.10;87.90;;;;;;10947023;32;20031;-71
2022/01/02 22:23:03;;;;;;;57.50;30.48;;;4.10;87.90;;;;;;10943485;32;20023;-71
2022/01/02 22:29:07;;;;;;;50.38;26.23;;;4.10;88.00;;;;;;10946775;32;20296;-71
2022/01/02 22:35:09;;;;;;;34.05;18.45;;;4.10;88.00;;;;;;10946523;32;20045;-71
2022/01/02 22:41:12;;;;;;;47.05;27.92;;;4.10;88.00;;;;;;10946301;32;20073;-71
2022/01/02 22:47:17;;;;;;;50.85;22.00;;;4.20;87.90;;;;;;10946053;32;20051;-71
2022/01/02 22:53:20;;;;;;;47.85;27.98;;;4.20;88.00;;;;;;10945458;32;20293;-72
2022/01/02 22:59:57;;;;;;;62.28;28.17;;;4.20;88.00;;;;;;10945946;32;20069;-72
2022/01/02 23:06:02;;;;;;;78.20;37.00;;;4.20;88.10;;;;;;10945278;32;20053;-72
2022/01/02 23:12:06;;;;;;;55.80;24.05;;;4.20;88.10;;;;;;10931847;32;20571;-72
2022/01/02 23:18:11;;;;;;;67.55;27.58;;;4.30;88.10;;;;;;10943591;32;20027;-72
2022/01/02 23:24:52;;;;;;;42.03;19.73;;;4.30;88.10;;;;;;10944706;32;20043;-72
2022/01/02 23:30:54;;;;;;;37.85;15.52;;;4.30;88.10;;;;;;10944530;32;20027;-72
2022/01/02 23:37:08;;;;;;;43.42;21.85;;;4.30;88.20;;;;;;10944368;32;20296;-70
2022/01/02 23:43:13;;;;;;;41.10;18.80;;;4.30;88.10;;;;;;10943961;32;20053;-71
2022/01/02 23:49:21;;;;;;;50.17;22.83;;;4.30;88.20;;;;;;10943856;32;20366;-71
2022/01/02 23:55:28;;;;;;;32.25;15.65;;;4.30;88.20;;;;;;10943685;32;20039;-71
